createdAt,value
2017-08-13T00:01:12.845Z,15.52
2017-08-13T00:03:40.857Z,16.75
2017-08-13T00:06:08.421Z,16.87
2017-08-13T00:08:36.007Z,15.50
2017-08-13T00:11:04.301Z,15.93
2017-08-13T00:13:31.888Z,16.95
2017-08-13T00:15:59.463Z,17.50
2017-08-13T00:18:27.498Z,16.52
2017-08-13T00:20:55.093Z,17.70
2017-08-13T00:23:22.686Z,16.80
2017-08-13T00:25:50.264Z,17.08
2017-08-13T00:28:18.148Z,18.58
2017-08-13T00:30:45.708Z,19.12
2017-08-13T00:33:13.275Z,18.17
2017-08-13T00:35:41.078Z,18.62
2017-08-13T00:38:08.690Z,20.73
2017-08-13T00:40:36.245Z,21.20
2017-08-13T00:43:03.878Z,22.00
2017-08-13T00:45:31.444Z,20.15
2017-08-13T00:47:59.087Z,22.58
2017-08-13T00:50:26.660Z,21.50
2017-08-13T00:52:54.230Z,22.15
2017-08-13T00:55:22.438Z,22.52
2017-08-13T00:57:50.000Z,23.62
2017-08-13T01:00:17.632Z,20.80
2017-08-13T01:02:45.303Z,22.33
2017-08-13T01:05:13.205Z,23.38
2017-08-13T01:07:40.766Z,20.67
2017-08-13T01:10:08.334Z,22.13
2017-08-13T01:12:38.135Z,20.85
2017-08-13T01:15:06.482Z,24.08
2017-08-13T01:17:34.055Z,25.35
2017-08-13T01:20:01.966Z,25.23
2017-08-13T01:22:29.598Z,24.65
2017-08-13T01:24:57.182Z,25.40
2017-08-13T01:27:24.959Z,26.40
2017-08-13T01:29:52.585Z,23.55
2017-08-13T01:32:20.152Z,27.25
2017-08-13T01:34:47.758Z,25.25
2017-08-13T01:37:15.359Z,28.08
2017-08-13T01:39:42.946Z,27.77
2017-08-13T01:42:10.691Z,24.65
2017-08-13T01:44:38.262Z,29.12
2017-08-13T01:47:06.007Z,37.13
2017-08-13T01:49:33.563Z,30.75
2017-08-13T01:52:01.239Z,29.87
2017-08-13T01:54:28.849Z,32.90
2017-08-13T01:56:56.549Z,30.83
2017-08-13T01:59:24.162Z,34.78
2017-08-13T02:01:51.718Z,32.22
2017-08-13T02:04:19.378Z,32.40
2017-08-13T02:06:46.944Z,33.53
2017-08-13T02:09:14.875Z,33.78
2017-08-13T02:11:42.438Z,26.52
2017-08-13T02:14:10.165Z,34.65
2017-08-13T02:16:37.774Z,33.03
2017-08-13T02:19:05.359Z,32.13
2017-08-13T02:21:33.469Z,36.45
2017-08-13T02:24:01.029Z,34.10
2017-08-13T02:26:28.593Z,34.17
2017-08-13T02:28:56.205Z,31.48
2017-08-13T02:31:24.268Z,30.62
2017-08-13T02:33:51.841Z,28.75
2017-08-13T02:36:19.401Z,33.88
2017-08-13T02:38:47.065Z,29.25
2017-08-13T02:41:14.627Z,28.23
2017-08-13T02:43:42.242Z,21.60
2017-08-13T02:46:09.793Z,23.87
2017-08-13T02:48:37.373Z,20.80
2017-08-13T02:51:05.098Z,22.80
2017-08-13T02:53:32.750Z,22.48
2017-08-13T02:56:00.325Z,20.25
2017-08-13T02:58:28.085Z,19.50
2017-08-13T03:00:55.650Z,19.48
2017-08-13T03:03:23.226Z,20.73
2017-08-13T03:05:51.100Z,19.50
2017-08-13T03:08:18.657Z,18.77
2017-08-13T03:10:46.212Z,20.15
2017-08-13T03:13:13.960Z,21.20
2017-08-13T03:15:41.581Z,19.20
2017-08-13T03:18:09.194Z,21.10
2017-08-13T03:20:36.749Z,19.95
2017-08-13T03:23:04.349Z,20.08
2017-08-13T03:25:32.406Z,19.60
2017-08-13T03:27:59.982Z,20.10
2017-08-13T03:30:28.669Z,18.58
2017-08-13T03:32:56.234Z,18.62
2017-08-13T03:35:25.177Z,16.27
2017-08-13T03:37:52.781Z,16.60
2017-08-13T03:40:21.113Z,16.98
2017-08-13T03:42:48.734Z,18.02
2017-08-13T03:45:16.353Z,18.30
2017-08-13T03:47:44.326Z,20.15
2017-08-13T03:50:11.885Z,20.17
2017-08-13T03:52:39.505Z,18.05
2017-08-13T03:55:07.083Z,21.05
2017-08-13T03:57:35.294Z,22.20
2017-08-13T04:00:02.843Z,21.75
2017-08-13T04:02:30.412Z,23.05
2017-08-13T04:04:58.833Z,24.20
2017-08-13T04:07:26.411Z,31.62
2017-08-13T04:09:53.978Z,31.02
2017-08-13T04:12:23.307Z,27.58
2017-08-13T04:14:50.855Z,31.98
2017-08-13T04:17:18.421Z,30.60
2017-08-13T04:19:46.024Z,27.42
2017-08-13T04:22:13.582Z,35.45
2017-08-13T04:24:42.657Z,33.00
2017-08-13T04:27:10.210Z,35.70
2017-08-13T04:29:37.802Z,40.03
2017-08-13T04:32:05.375Z,39.53
2017-08-13T04:34:32.932Z,35.22
2017-08-13T04:37:00.858Z,31.98
2017-08-13T04:39:28.412Z,40.80
2017-08-13T04:41:55.978Z,40.90
2017-08-13T04:44:23.685Z,41.33
2017-08-13T04:46:51.298Z,44.63
2017-08-13T04:49:18.881Z,39.97
2017-08-13T04:51:46.496Z,41.70
2017-08-13T04:54:14.071Z,42.40
2017-08-13T04:56:41.695Z,36.33
2017-08-13T04:59:09.256Z,39.05
2017-08-13T05:01:37.006Z,35.58
2017-08-13T05:04:04.562Z,37.92
2017-08-13T05:06:32.929Z,43.28
2017-08-13T05:09:01.256Z,32.92
2017-08-13T05:11:29.251Z,34.53
2017-08-13T05:13:57.029Z,37.55
2017-08-13T05:16:24.585Z,44.50
2017-08-13T05:18:52.258Z,35.65
2017-08-13T05:21:19.880Z,39.20
2017-08-13T05:23:47.430Z,39.65
2017-08-13T05:26:15.030Z,40.78
2017-08-13T05:28:42.603Z,40.88
2017-08-13T05:31:10.210Z,43.25
2017-08-13T05:33:37.761Z,44.38
2017-08-13T05:36:05.679Z,45.80
2017-08-13T05:38:33.286Z,41.15
2017-08-13T05:41:00.838Z,42.13
2017-08-13T05:43:28.442Z,45.78
2017-08-13T05:45:56.193Z,45.33
2017-08-13T05:48:23.801Z,45.30
2017-08-13T05:50:51.350Z,47.92
2017-08-13T05:53:19.147Z,49.53
2017-08-13T05:55:46.743Z,43.97
2017-08-13T05:58:14.411Z,51.90
2017-08-13T06:00:41.977Z,44.78
2017-08-13T06:03:09.574Z,49.78
2017-08-13T06:05:37.143Z,59.30
2017-08-13T06:08:04.750Z,51.55
2017-08-13T06:10:32.301Z,42.08
2017-08-13T06:13:00.565Z,45.72
2017-08-13T06:15:28.147Z,43.53
2017-08-13T06:17:55.722Z,43.55
2017-08-13T06:20:23.804Z,47.03
2017-08-13T06:22:51.365Z,44.20
2017-08-13T06:25:18.934Z,40.92
2017-08-13T06:27:46.537Z,44.10
2017-08-13T06:30:14.100Z,43.40
2017-08-13T06:32:42.217Z,42.20
2017-08-13T06:35:09.794Z,39.58
2017-08-13T06:37:37.359Z,36.75
2017-08-13T06:40:05.401Z,36.38
2017-08-13T06:42:32.969Z,34.15
2017-08-13T06:45:00.530Z,35.47
2017-08-13T06:47:28.407Z,34.60
2017-08-13T06:49:55.962Z,33.60
2017-08-13T06:52:24.564Z,31.12
2017-08-13T06:54:53.310Z,32.55
2017-08-13T06:57:20.870Z,31.37
2017-08-13T06:59:48.462Z,34.13
2017-08-13T07:02:16.909Z,29.77
2017-08-13T07:04:44.466Z,34.15
2017-08-13T07:07:12.137Z,34.03
2017-08-13T07:09:39.702Z,33.45
2017-08-13T07:12:07.302Z,29.02
2017-08-13T07:14:35.194Z,31.48
2017-08-13T07:17:03.206Z,30.27
2017-08-13T07:19:30.776Z,30.65
2017-08-13T07:21:58.334Z,28.45
2017-08-13T07:24:26.065Z,29.42
2017-08-13T07:26:53.628Z,32.38
2017-08-13T07:29:21.227Z,32.10
2017-08-13T07:31:48.789Z,30.23
2017-08-13T07:34:16.398Z,29.67
2017-08-13T07:36:43.966Z,30.90
2017-08-13T07:39:11.598Z,30.98
2017-08-13T07:41:39.181Z,31.83
2017-08-13T07:44:06.733Z,32.45
2017-08-13T07:46:34.471Z,31.00
2017-08-13T07:49:02.102Z,29.98
2017-08-13T07:51:29.676Z,31.67
2017-08-13T07:53:57.286Z,32.95
2017-08-13T07:56:24.853Z,32.53
2017-08-13T07:58:52.454Z,32.55
2017-08-13T08:01:20.003Z,31.73
2017-08-13T08:03:47.571Z,32.58
2017-08-13T08:06:15.634Z,32.17
2017-08-13T08:08:43.198Z,29.95
2017-08-13T08:11:11.075Z,31.33
2017-08-13T08:13:38.647Z,30.83
2017-08-13T08:16:07.014Z,30.65
2017-08-13T08:18:39.593Z,28.55
2017-08-13T08:21:07.156Z,29.42
2017-08-13T08:23:34.905Z,28.40
2017-08-13T08:26:02.513Z,29.08
2017-08-13T08:28:30.118Z,30.63
2017-08-13T08:30:57.714Z,29.50
2017-08-13T08:33:25.270Z,29.40
2017-08-13T08:35:53.597Z,30.50
2017-08-13T08:38:21.814Z,28.92
2017-08-13T08:40:49.402Z,29.33
2017-08-13T08:43:16.962Z,27.62
2017-08-13T08:45:44.567Z,28.63
2017-08-13T08:48:12.143Z,28.20
2017-08-13T08:50:39.708Z,26.00
2017-08-13T08:53:07.680Z,25.47
2017-08-13T08:55:35.232Z,22.97
2017-08-13T08:58:02.790Z,28.43
2017-08-13T09:00:30.533Z,27.40
2017-08-13T09:02:58.126Z,27.30
2017-08-13T09:05:25.694Z,26.73
2017-08-13T09:07:54.414Z,25.83
2017-08-13T09:10:22.427Z,23.87
2017-08-13T09:12:49.978Z,24.07
2017-08-13T09:15:17.769Z,24.23
2017-08-13T09:17:45.756Z,24.50
2017-08-13T09:20:13.330Z,23.30
2017-08-13T09:22:40.897Z,24.10
2017-08-13T09:25:13.497Z,24.97
2017-08-13T09:27:41.062Z,26.00
2017-08-13T09:30:08.622Z,24.47
2017-08-13T09:32:36.351Z,24.93
2017-08-13T09:35:03.950Z,26.90
2017-08-13T09:37:31.516Z,26.73
2017-08-13T09:39:59.062Z,24.03
2017-08-13T09:42:26.717Z,24.77
2017-08-13T09:44:54.260Z,19.80
2017-08-13T09:47:21.861Z,20.80
2017-08-13T09:49:49.428Z,20.17
2017-08-13T09:52:16.986Z,19.17
2017-08-13T09:54:44.725Z,19.20
2017-08-13T09:57:12.326Z,18.27
2017-08-13T09:59:39.882Z,17.87
2017-08-13T10:02:07.473Z,16.80
2017-08-13T10:04:35.020Z,17.90
2017-08-13T10:07:03.078Z,18.07
2017-08-13T10:09:30.625Z,17.60
2017-08-13T10:11:58.562Z,17.80
2017-08-13T10:14:31.599Z,16.53
2017-08-13T10:16:59.146Z,16.77
2017-08-13T10:19:26.693Z,15.00
2017-08-13T10:21:54.362Z,14.60
2017-08-13T10:24:25.854Z,16.17
2017-08-13T10:26:53.412Z,15.13
2017-08-13T10:29:21.758Z,14.17
2017-08-13T10:31:49.514Z,14.17
2017-08-13T10:34:17.133Z,17.53
2017-08-13T10:36:45.451Z,17.17
2017-08-13T10:39:13.001Z,17.27
2017-08-13T10:41:40.596Z,20.10
2017-08-13T10:44:08.145Z,18.60
2017-08-13T10:46:35.840Z,19.07
2017-08-13T10:49:03.398Z,17.73
2017-08-13T10:51:30.984Z,11.67
2017-08-13T10:53:58.534Z,11.57
2017-08-13T10:56:26.120Z,13.37
2017-08-13T10:58:53.674Z,13.33
2017-08-13T11:01:21.685Z,11.60
2017-08-13T11:03:49.248Z,13.43
2017-08-13T11:06:16.801Z,12.10
2017-08-13T11:08:44.549Z,12.60
2017-08-13T11:11:12.228Z,12.27
2017-08-13T11:13:39.825Z,12.73
2017-08-13T11:16:08.166Z,11.17
2017-08-13T11:18:36.034Z,11.77
2017-08-13T11:21:03.582Z,12.03
2017-08-13T11:23:31.136Z,12.10
2017-08-13T11:25:59.159Z,13.40
2017-08-13T11:28:26.725Z,14.10
2017-08-13T11:31:00.192Z,12.90
2017-08-13T11:33:27.737Z,14.50
2017-08-13T11:35:55.286Z,12.20
2017-08-13T11:38:22.892Z,14.00
2017-08-13T11:40:51.358Z,12.80
2017-08-13T11:43:18.924Z,13.17
2017-08-13T11:45:46.611Z,11.93
2017-08-13T11:48:14.689Z,11.40
2017-08-13T11:50:42.239Z,12.00
2017-08-13T11:53:09.785Z,10.67
2017-08-13T11:55:38.493Z,11.30
2017-08-13T11:58:06.866Z,10.40
2017-08-13T12:00:34.425Z,11.90
2017-08-13T12:03:02.418Z,11.77
2017-08-13T12:05:29.975Z,12.00
2017-08-13T12:07:57.539Z,10.70
2017-08-13T12:10:25.654Z,10.77
2017-08-13T12:12:53.457Z,10.20
2017-08-13T12:15:21.009Z,9.23
2017-08-13T12:17:49.666Z,9.57
2017-08-13T12:20:17.270Z,9.70
2017-08-13T12:22:44.821Z,9.87
2017-08-13T12:25:13.165Z,9.63
2017-08-13T12:27:40.726Z,9.97
2017-08-13T12:30:08.360Z,9.20
2017-08-13T12:32:35.905Z,9.07
2017-08-13T12:35:03.491Z,7.70
2017-08-13T12:37:31.033Z,8.23
2017-08-13T12:39:58.934Z,8.50
2017-08-13T12:42:26.472Z,8.80
2017-08-13T12:44:54.016Z,7.53
2017-08-13T12:47:26.843Z,7.40
2017-08-13T12:49:54.436Z,7.50
2017-08-13T12:52:22.007Z,7.23
2017-08-13T12:54:49.601Z,6.70
2017-08-13T12:57:17.179Z,7.33
2017-08-13T12:59:44.773Z,7.33
2017-08-13T13:02:13.094Z,6.83
2017-08-13T13:04:40.981Z,7.20
2017-08-13T13:07:13.493Z,6.93
2017-08-13T13:09:42.258Z,6.00
2017-08-13T13:12:14.787Z,5.80
2017-08-13T13:14:42.366Z,5.13
2017-08-13T13:17:10.263Z,6.07
2017-08-13T13:19:37.815Z,5.30
2017-08-13T13:22:05.358Z,4.20
2017-08-13T13:24:34.306Z,5.90
2017-08-13T13:27:03.334Z,6.40
2017-08-13T13:29:30.881Z,4.90
2017-08-13T13:31:58.417Z,5.60
2017-08-13T13:34:29.168Z,5.80
2017-08-13T13:36:56.763Z,6.23
2017-08-13T13:39:24.305Z,6.07
2017-08-13T13:41:52.284Z,6.73
2017-08-13T13:44:19.834Z,5.70
2017-08-13T13:46:47.398Z,5.73
2017-08-13T13:49:15.046Z,6.60
2017-08-13T13:51:42.586Z,4.37
2017-08-13T13:54:10.929Z,5.00
2017-08-13T13:56:38.477Z,5.33
2017-08-13T13:59:06.269Z,4.03
2017-08-13T14:01:34.114Z,3.30
2017-08-13T14:04:01.651Z,3.33
2017-08-13T14:06:29.196Z,3.67
2017-08-13T14:08:57.163Z,4.13
2017-08-13T14:11:24.703Z,4.60
2017-08-13T14:13:52.269Z,3.97
2017-08-13T14:16:19.925Z,4.57
2017-08-13T14:18:47.475Z,3.97
2017-08-13T14:21:15.050Z,4.00
2017-08-13T14:23:43.354Z,4.13
2017-08-13T14:26:11.250Z,4.47
2017-08-13T14:28:39.170Z,4.40
2017-08-13T14:31:06.714Z,4.30
2017-08-13T14:33:35.123Z,4.00
2017-08-13T14:36:02.666Z,4.23
2017-08-13T14:38:34.142Z,5.40
2017-08-13T14:41:01.677Z,4.67
2017-08-13T14:43:29.984Z,4.83
2017-08-13T14:45:57.856Z,4.27
2017-08-13T14:48:25.399Z,3.57
2017-08-13T14:50:52.944Z,4.30
2017-08-13T14:53:21.174Z,4.13
2017-08-13T14:55:48.754Z,4.73
2017-08-13T14:58:17.133Z,3.80
2017-08-13T15:00:44.694Z,3.50
2017-08-13T15:03:12.243Z,3.20
2017-08-13T15:05:40.279Z,2.70
2017-08-13T15:08:07.851Z,3.40
2017-08-13T15:10:35.634Z,3.20
2017-08-13T15:13:03.589Z,4.27
2017-08-13T15:15:31.157Z,3.40
2017-08-13T15:17:58.701Z,5.10
2017-08-13T15:20:26.277Z,5.43
2017-08-13T15:22:53.817Z,4.67
2017-08-13T15:25:21.698Z,5.43
2017-08-13T15:27:49.244Z,4.80
2017-08-13T15:30:16.806Z,4.03
2017-08-13T15:32:45.926Z,3.50
2017-08-13T15:35:13.461Z,3.40
2017-08-13T15:37:41.008Z,5.73
2017-08-13T15:40:08.596Z,3.93
2017-08-13T15:42:36.134Z,4.17
2017-08-13T15:45:03.717Z,4.90
2017-08-13T15:47:31.689Z,3.60
2017-08-13T15:49:59.228Z,3.70
2017-08-13T15:52:26.770Z,3.83
2017-08-13T15:54:54.849Z,3.77
2017-08-13T15:57:22.394Z,4.07
2017-08-13T15:59:49.925Z,3.93
2017-08-13T16:02:18.282Z,3.70
2017-08-13T16:04:45.869Z,4.10
2017-08-13T16:07:14.186Z,6.37
2017-08-13T16:09:42.134Z,3.83
2017-08-13T16:12:09.713Z,4.10
2017-08-13T16:14:37.241Z,3.60
2017-08-13T16:17:09.278Z,6.13
2017-08-13T16:19:36.813Z,4.20
2017-08-13T16:22:04.665Z,3.30
2017-08-13T16:24:32.202Z,3.80
2017-08-13T16:26:59.742Z,4.27
2017-08-13T16:29:27.409Z,3.97
2017-08-13T16:31:55.713Z,4.40
2017-08-13T16:34:23.400Z,4.60
2017-08-13T16:36:50.942Z,4.40
2017-08-13T16:39:18.522Z,6.30
2017-08-13T16:41:46.065Z,4.30
2017-08-13T16:44:13.646Z,5.80
2017-08-13T16:46:41.188Z,4.80
2017-08-13T16:49:08.879Z,4.67
2017-08-13T16:51:36.419Z,5.17
2017-08-13T16:54:03.956Z,4.60
2017-08-13T16:56:31.821Z,4.50
2017-08-13T16:58:59.366Z,4.90
2017-08-13T17:01:26.906Z,5.10
2017-08-13T17:03:54.490Z,6.77
2017-08-13T17:06:22.435Z,4.77
2017-08-13T17:08:49.974Z,4.70
2017-08-13T17:11:17.822Z,4.90
2017-08-13T17:13:45.518Z,5.23
2017-08-13T17:16:13.120Z,5.00
2017-08-13T17:18:40.666Z,5.07
2017-08-13T17:21:08.252Z,5.13
2017-08-13T17:23:35.849Z,5.43
2017-08-13T17:26:03.395Z,4.40
2017-08-13T17:28:30.981Z,5.40
2017-08-13T17:30:58.522Z,5.23
2017-08-13T17:33:26.169Z,5.80
2017-08-13T17:35:53.712Z,5.40
2017-08-13T17:38:21.288Z,5.70
2017-08-13T17:40:48.833Z,5.80
2017-08-13T17:43:16.669Z,8.17
2017-08-13T17:45:44.212Z,6.47
2017-08-13T17:48:11.760Z,5.87
2017-08-13T17:50:39.618Z,5.90
2017-08-13T17:53:07.210Z,6.10
2017-08-13T17:55:34.758Z,7.03
2017-08-13T17:58:02.354Z,6.23
2017-08-13T18:00:29.896Z,5.77
2017-08-13T18:02:57.448Z,6.30
2017-08-13T18:05:30.505Z,5.83
2017-08-13T18:07:58.042Z,6.30
2017-08-13T18:10:25.818Z,6.60
2017-08-13T18:12:53.393Z,5.70
2017-08-13T18:15:20.937Z,5.57
2017-08-13T18:17:48.534Z,6.00
2017-08-13T18:20:16.205Z,6.17
2017-08-13T18:22:44.968Z,7.60
2017-08-13T18:25:12.510Z,6.67
2017-08-13T18:27:40.186Z,6.60
2017-08-13T18:30:07.766Z,7.50
2017-08-13T18:32:35.321Z,8.00
2017-08-13T18:35:03.174Z,7.10
2017-08-13T18:37:30.725Z,7.43
2017-08-13T18:39:58.362Z,6.97
2017-08-13T18:42:26.024Z,8.10
2017-08-13T18:44:53.634Z,7.73
2017-08-13T18:47:21.178Z,8.13
2017-08-13T18:49:49.144Z,7.13
2017-08-13T18:52:16.698Z,8.17
2017-08-13T18:54:44.249Z,7.53
2017-08-13T18:57:11.866Z,7.37
2017-08-13T18:59:39.414Z,8.77
2017-08-13T19:02:06.975Z,8.53
2017-08-13T19:04:35.592Z,9.53
2017-08-13T19:07:03.129Z,10.70
2017-08-13T19:09:30.678Z,8.30
2017-08-13T19:12:02.362Z,9.83
2017-08-13T19:14:29.905Z,9.33
2017-08-13T19:16:58.210Z,9.33
2017-08-13T19:19:26.114Z,9.13
2017-08-13T19:21:53.662Z,9.43
2017-08-13T19:24:21.217Z,9.27
2017-08-13T19:26:49.473Z,11.60
2017-08-13T19:29:17.013Z,9.40
2017-08-13T19:31:44.553Z,9.93
2017-08-13T19:34:12.326Z,9.93
2017-08-13T19:36:40.657Z,9.93
2017-08-13T19:39:08.493Z,10.13
2017-08-13T19:41:36.070Z,9.57
2017-08-13T19:44:03.630Z,9.65
2017-08-13T19:46:31.209Z,10.52
2017-08-13T19:48:58.793Z,9.98
2017-08-13T19:51:26.351Z,9.80
2017-08-13T19:53:54.099Z,11.38
2017-08-13T19:56:23.326Z,10.60
2017-08-13T19:58:50.862Z,9.07
2017-08-13T20:01:18.406Z,10.38
2017-08-13T20:03:46.787Z,10.95
2017-08-13T20:06:14.398Z,10.10
2017-08-13T20:08:42.704Z,9.95
2017-08-13T20:11:10.410Z,9.75
2017-08-13T20:13:37.948Z,9.80
2017-08-13T20:16:05.537Z,11.23
2017-08-13T20:18:33.093Z,10.30
2017-08-13T20:21:00.961Z,11.12
2017-08-13T20:23:28.512Z,11.18
2017-08-13T20:25:56.063Z,10.90
2017-08-13T20:28:23.945Z,12.18
2017-08-13T20:30:51.493Z,11.40
2017-08-13T20:33:19.366Z,12.37
2017-08-13T20:35:46.904Z,12.07
2017-08-13T20:38:14.445Z,11.23
2017-08-13T20:40:42.465Z,11.35
2017-08-13T20:43:10.001Z,10.00
2017-08-13T20:45:37.536Z,10.90
2017-08-13T20:48:10.361Z,11.63
2017-08-13T20:50:37.905Z,12.20
2017-08-13T20:53:05.450Z,11.80
2017-08-13T20:55:33.034Z,11.85
2017-08-13T20:58:00.584Z,11.77
2017-08-13T21:00:28.470Z,12.48
2017-08-13T21:02:56.010Z,12.57
2017-08-13T21:05:23.558Z,12.13
2017-08-13T21:07:51.150Z,12.98
2017-08-13T21:10:19.223Z,13.25
2017-08-13T21:12:46.790Z,12.57
2017-08-13T21:15:14.337Z,13.02
2017-08-13T21:17:42.029Z,12.55
2017-08-13T21:20:09.571Z,13.27
2017-08-13T21:22:37.115Z,13.00
2017-08-13T21:25:04.697Z,12.85
2017-08-13T21:27:32.606Z,12.00
2017-08-13T21:30:00.187Z,12.80
2017-08-13T21:32:27.823Z,12.10
2017-08-13T21:34:55.370Z,12.73
2017-08-13T21:37:23.801Z,12.80
2017-08-13T21:39:51.670Z,13.20
2017-08-13T21:42:19.223Z,13.10
2017-08-13T21:44:46.766Z,12.63
2017-08-13T21:47:14.413Z,12.13
2017-08-13T21:49:41.958Z,12.30
2017-08-13T21:52:09.539Z,13.00
2017-08-13T21:54:37.078Z,13.38
2017-08-13T21:57:05.602Z,13.62
2017-08-13T21:59:33.140Z,13.93
2017-08-13T22:02:00.726Z,14.20
2017-08-13T22:04:28.265Z,14.45
2017-08-13T22:06:55.810Z,14.35
2017-08-13T22:09:24.155Z,14.55
2017-08-13T22:11:51.753Z,14.13
2017-08-13T22:14:20.392Z,13.95
2017-08-13T22:16:47.934Z,14.75
2017-08-13T22:19:15.517Z,15.52
2017-08-13T22:21:43.097Z,17.30
2017-08-13T22:24:10.839Z,14.15
2017-08-13T22:26:38.379Z,15.77
2017-08-13T22:29:06.318Z,12.48
2017-08-13T22:31:34.027Z,14.05
2017-08-13T22:34:01.588Z,14.57
2017-08-13T22:36:29.174Z,13.98
2017-08-13T22:38:56.730Z,15.68
2017-08-13T22:41:24.701Z,15.25
2017-08-13T22:43:52.247Z,16.73
2017-08-13T22:46:19.790Z,15.70
2017-08-13T22:48:47.864Z,14.77
2017-08-13T22:51:15.462Z,15.25
2017-08-13T22:53:43.770Z,15.60
2017-08-13T22:56:11.505Z,15.40
2017-08-13T22:58:39.817Z,15.35
2017-08-13T23:01:08.152Z,14.70
2017-08-13T23:03:41.931Z,12.10
2017-08-13T23:06:09.470Z,11.68
2017-08-13T23:08:37.363Z,13.13
2017-08-13T23:11:04.894Z,10.63
2017-08-13T23:13:32.442Z,11.10
2017-08-13T23:16:00.021Z,13.50
2017-08-13T23:18:27.755Z,10.98
2017-08-13T23:20:55.309Z,11.80
2017-08-13T23:23:22.853Z,14.65
2017-08-13T23:25:51.604Z,14.18
2017-08-13T23:28:19.309Z,11.50
2017-08-13T23:30:47.637Z,12.77
2017-08-13T23:33:15.221Z,11.12
2017-08-13T23:35:47.892Z,12.40
2017-08-13T23:38:15.434Z,12.48
2017-08-13T23:40:42.984Z,10.80
2017-08-13T23:43:10.645Z,11.15
2017-08-13T23:45:38.261Z,10.43
2017-08-13T23:48:05.805Z,11.75
2017-08-13T23:50:33.345Z,11.10
2017-08-13T23:53:00.993Z,12.07
2017-08-13T23:55:28.532Z,11.27
2017-08-13T23:57:56.142Z,12.65
